sensor_id;sensor_type;location;lat;lon;timestamp;pressure;altitude;pressure_sealevel;temperature;humidity
71917;BME280;59793;46.506;6.674;2023-02-13T00:00:28;98915.34;;;4.56;65.80
71917;BME280;59793;46.506;6.674;2023-02-13T00:02:53;98925.75;;;4.51;66.33
71917;BME280;59793;46.506;6.674;2023-02-13T00:05:19;98956.94;;;4.83;65.50
71917;BME280;59793;46.506;6.674;2023-02-13T00:07:44;98960.88;;;4.81;65.55
71917;BME280;59793;46.506;6.674;2023-02-13T00:10:10;98971.88;;;4.88;65.58
71917;BME280;59793;46.506;6.674;2023-02-13T00:12:35;98928.91;;;4.58;66.37
71917;BME280;59793;46.506;6.674;2023-02-13T00:15:00;98956.94;;;4.78;65.98
71917;BME280;59793;46.506;6.674;2023-02-13T00:17:26;98959.84;;;4.87;65.90
71917;BME280;59793;46.506;6.674;2023-02-13T00:19:52;98935.69;;;4.59;66.47
71917;BME280;59793;46.506;6.674;2023-02-13T00:22:17;98958.47;;;4.69;66.92
71917;BME280;59793;46.506;6.674;2023-02-13T00:24:42;98934.28;;;4.36;67.39
71917;BME280;59793;46.506;6.674;2023-02-13T00:27:08;98913.59;;;4.19;67.57
71917;BME280;59793;46.506;6.674;2023-02-13T00:29:33;98944.72;;;4.36;67.96
71917;BME280;59793;46.506;6.674;2023-02-13T00:31:59;98923.75;;;4.16;68.73
71917;BME280;59793;46.506;6.674;2023-02-13T00:34:25;98929.50;;;4.18;68.59
71917;BME280;59793;46.506;6.674;2023-02-13T00:36:51;98914.56;;;4.03;68.53
71917;BME280;59793;46.506;6.674;2023-02-13T00:39:16;98944.91;;;4.19;68.30
71917;BME280;59793;46.506;6.674;2023-02-13T00:41:41;98926.06;;;4.12;68.62
71917;BME280;59793;46.506;6.674;2023-02-13T00:44:08;98958.03;;;4.35;68.70
71917;BME280;59793;46.506;6.674;2023-02-13T00:46:34;98966.38;;;4.31;69.21
71917;BME280;59793;46.506;6.674;2023-02-13T00:48:59;98938.06;;;4.13;69.21
71917;BME280;59793;46.506;6.674;2023-02-13T00:51:24;98932.56;;;4.10;68.64
71917;BME280;59793;46.506;6.674;2023-02-13T00:53:50;98952.44;;;4.16;68.72
71917;BME280;59793;46.506;6.674;2023-02-13T00:56:15;98971.53;;;4.26;69.24
71917;BME280;59793;46.506;6.674;2023-02-13T00:58:41;98968.69;;;4.28;69.34
71917;BME280;59793;46.506;6.674;2023-02-13T01:01:06;98973.63;;;4.24;69.28
71917;BME280;59793;46.506;6.674;2023-02-13T01:03:31;98971.59;;;4.31;69.55
71917;BME280;59793;46.506;6.674;2023-02-13T01:05:57;98952.19;;;4.17;69.62
71917;BME280;59793;46.506;6.674;2023-02-13T01:08:23;98978.59;;;4.31;69.10
71917;BME280;59793;46.506;6.674;2023-02-13T01:10:49;98972.59;;;4.30;68.82
71917;BME280;59793;46.506;6.674;2023-02-13T01:13:16;98944.59;;;4.11;68.90
71917;BME280;59793;46.506;6.674;2023-02-13T01:15:42;98979.63;;;4.25;69.18
71917;BME280;59793;46.506;6.674;2023-02-13T01:18:09;98950.53;;;4.06;69.24
71917;BME280;59793;46.506;6.674;2023-02-13T01:20:36;98942.38;;;3.92;69.59
71917;BME280;59793;46.506;6.674;2023-02-13T01:23:02;98965.53;;;3.89;70.49
71917;BME280;59793;46.506;6.674;2023-02-13T01:25:27;98982.56;;;3.96;70.18
71917;BME280;59793;46.506;6.674;2023-02-13T01:27:53;98946.72;;;3.81;70.31
71917;BME280;59793;46.506;6.674;2023-02-13T01:30:18;98971.94;;;4.03;69.84
71917;BME280;59793;46.506;6.674;2023-02-13T01:32:45;98982.41;;;4.13;69.70
71917;BME280;59793;46.506;6.674;2023-02-13T01:35:11;98983.13;;;4.03;70.19
71917;BME280;59793;46.506;6.674;2023-02-13T01:37:38;98977.63;;;4.00;70.29
71917;BME280;59793;46.506;6.674;2023-02-13T01:40:05;98981.25;;;3.99;70.62
71917;BME280;59793;46.506;6.674;2023-02-13T01:42:33;98929.09;;;3.62;71.03
71917;BME280;59793;46.506;6.674;2023-02-13T01:47:38;98977.34;;;3.96;70.61
71917;BME280;59793;46.506;6.674;2023-02-13T01:50:14;98971.69;;;4.10;70.17
71917;BME280;59793;46.506;6.674;2023-02-13T01:52:45;98962.56;;;4.07;70.16
71917;BME280;59793;46.506;6.674;2023-02-13T01:55:12;98967.03;;;4.17;70.10
71917;BME280;59793;46.506;6.674;2023-02-13T01:57:39;98940.09;;;4.06;69.87
71917;BME280;59793;46.506;6.674;2023-02-13T02:00:12;98980.91;;;4.17;70.41
71917;BME280;59793;46.506;6.674;2023-02-13T02:02:43;98975.69;;;4.17;70.29
71917;BME280;59793;46.506;6.674;2023-02-13T02:05:10;98941.69;;;4.07;69.63
71917;BME280;59793;46.506;6.674;2023-02-13T02:07:37;98933.88;;;4.07;69.44
71917;BME280;59793;46.506;6.674;2023-02-13T02:10:04;98972.81;;;4.19;69.67
71917;BME280;59793;46.506;6.674;2023-02-13T02:15:04;98929.28;;;3.82;70.15
71917;BME280;59793;46.506;6.674;2023-02-13T02:17:29;98977.44;;;4.12;70.25
71917;BME280;59793;46.506;6.674;2023-02-13T02:25:24;98971.03;;;4.29;70.16
71917;BME280;59793;46.506;6.674;2023-02-13T02:47:58;98955.00;;;3.73;71.27
71917;BME280;59793;46.506;6.674;2023-02-13T02:50:58;98969.00;;;3.67;71.44
71917;BME280;59793;46.506;6.674;2023-02-13T02:53:46;98972.66;;;3.66;71.25
71917;BME280;59793;46.506;6.674;2023-02-13T02:56:22;98983.19;;;3.76;71.29
71917;BME280;59793;46.506;6.674;2023-02-13T02:58:54;98987.72;;;3.59;72.15
71917;BME280;59793;46.506;6.674;2023-02-13T03:01:40;98953.72;;;3.44;71.92
71917;BME280;59793;46.506;6.674;2023-02-13T03:04:39;98979.38;;;3.57;71.88
71917;BME280;59793;46.506;6.674;2023-02-13T03:07:23;98989.78;;;3.57;72.68
71917;BME280;59793;46.506;6.674;2023-02-13T03:09:52;98991.56;;;3.51;72.40
71917;BME280;59793;46.506;6.674;2023-02-13T03:12:45;98995.00;;;3.57;72.36
71917;BME280;59793;46.506;6.674;2023-02-13T03:15:30;98982.59;;;3.69;71.55
71917;BME280;59793;46.506;6.674;2023-02-13T03:17:57;98983.88;;;3.67;71.38
71917;BME280;59793;46.506;6.674;2023-02-13T03:20:45;98992.53;;;3.72;71.50
71917;BME280;59793;46.506;6.674;2023-02-13T03:28:55;98995.91;;;3.46;72.86
71917;BME280;59793;46.506;6.674;2023-02-13T03:34:56;98987.56;;;3.44;72.86
71917;BME280;59793;46.506;6.674;2023-02-13T03:37:44;98983.31;;;3.32;73.24
71917;BME280;59793;46.506;6.674;2023-02-13T03:40:27;98995.41;;;3.44;73.01
71917;BME280;59793;46.506;6.674;2023-02-13T03:43:07;98999.63;;;3.50;73.24
71917;BME280;59793;46.506;6.674;2023-02-13T03:45:41;98996.47;;;3.48;72.81
71917;BME280;59793;46.506;6.674;2023-02-13T03:48:21;99006.81;;;3.43;73.24
71917;BME280;59793;46.506;6.674;2023-02-13T03:51:11;98999.31;;;3.46;73.05
71917;BME280;59793;46.506;6.674;2023-02-13T03:53:40;98998.97;;;3.38;72.72
71917;BME280;59793;46.506;6.674;2023-02-13T03:56:08;98986.56;;;3.23;73.07
71917;BME280;59793;46.506;6.674;2023-02-13T03:58:55;99000.97;;;3.30;72.87
71917;BME280;59793;46.506;6.674;2023-02-13T04:01:44;99012.28;;;3.41;72.76
71917;BME280;59793;46.506;6.674;2023-02-13T04:04:24;98992.56;;;3.23;72.59
71917;BME280;59793;46.506;6.674;2023-02-13T04:07:00;99006.22;;;3.35;72.77
71917;BME280;59793;46.506;6.674;2023-02-13T04:09:28;99013.63;;;3.44;72.39
71917;BME280;59793;46.506;6.674;2023-02-13T04:12:10;99011.03;;;3.44;72.70
71917;BME280;59793;46.506;6.674;2023-02-13T04:17:26;98994.72;;;3.31;73.23
71917;BME280;59793;46.506;6.674;2023-02-13T04:19:54;98999.47;;;3.34;72.93
71917;BME280;59793;46.506;6.674;2023-02-13T04:22:19;99021.22;;;3.23;73.96
71917;BME280;59793;46.506;6.674;2023-02-13T04:24:45;99005.97;;;3.10;74.24
71917;BME280;59793;46.506;6.674;2023-02-13T04:27:13;99000.34;;;3.18;73.65
71917;BME280;59793;46.506;6.674;2023-02-13T04:29:40;99022.53;;;3.48;73.33
71917;BME280;59793;46.506;6.674;2023-02-13T04:32:05;99018.50;;;3.62;72.86
71917;BME280;59793;46.506;6.674;2023-02-13T04:34:31;99017.06;;;3.76;73.36
71917;BME280;59793;46.506;6.674;2023-02-13T04:36:56;99004.03;;;3.76;72.80
71917;BME280;59793;46.506;6.674;2023-02-13T04:39:21;99012.63;;;3.77;72.37
71917;BME280;59793;46.506;6.674;2023-02-13T04:41:47;98988.56;;;3.65;72.03
71917;BME280;59793;46.506;6.674;2023-02-13T04:44:12;98980.69;;;3.59;71.76
71917;BME280;59793;46.506;6.674;2023-02-13T04:46:37;99022.25;;;3.71;71.61
71917;BME280;59793;46.506;6.674;2023-02-13T04:49:03;99000.06;;;3.42;72.20
71917;BME280;59793;46.506;6.674;2023-02-13T04:51:28;99017.53;;;3.46;73.47
71917;BME280;59793;46.506;6.674;2023-02-13T04:53:53;99017.34;;;3.53;73.55
71917;BME280;59793;46.506;6.674;2023-02-13T04:56:19;99020.06;;;3.63;72.85
71917;BME280;59793;46.506;6.674;2023-02-13T04:58:44;99024.75;;;3.61;72.97
71917;BME280;59793;46.506;6.674;2023-02-13T05:01:13;99026.31;;;3.62;73.26
71917;BME280;59793;46.506;6.674;2023-02-13T05:03:39;99008.25;;;3.55;73.21
71917;BME280;59793;46.506;6.674;2023-02-13T05:06:05;99014.81;;;3.58;73.15
71917;BME280;59793;46.506;6.674;2023-02-13T05:08:30;98998.00;;;3.44;72.63
71917;BME280;59793;46.506;6.674;2023-02-13T05:10:56;99017.31;;;3.48;72.90
71917;BME280;59793;46.506;6.674;2023-02-13T05:13:21;98983.78;;;3.29;73.16
71917;BME280;59793;46.506;6.674;2023-02-13T05:15:47;99026.19;;;3.47;72.92
71917;BME280;59793;46.506;6.674;2023-02-13T05:18:12;99036.34;;;3.48;73.28
71917;BME280;59793;46.506;6.674;2023-02-13T05:20:39;98996.84;;;3.34;72.81
71917;BME280;59793;46.506;6.674;2023-02-13T05:23:12;99032.09;;;3.64;72.81
71917;BME280;59793;46.506;6.674;2023-02-13T05:25:46;99033.16;;;3.68;72.82
71917;BME280;59793;46.506;6.674;2023-02-13T05:28:12;99033.16;;;3.68;72.84
71917;BME280;59793;46.506;6.674;2023-02-13T05:30:56;99002.47;;;3.48;72.66
71917;BME280;59793;46.506;6.674;2023-02-13T05:33:21;99017.88;;;3.50;73.03
71917;BME280;59793;46.506;6.674;2023-02-13T05:35:47;99025.16;;;3.53;73.24
71917;BME280;59793;46.506;6.674;2023-02-13T05:38:13;99036.94;;;3.55;73.68
71917;BME280;59793;46.506;6.674;2023-02-13T05:40:38;98984.31;;;3.31;73.57
71917;BME280;59793;46.506;6.674;2023-02-13T05:43:03;99025.53;;;3.62;73.51
71917;BME280;59793;46.506;6.674;2023-02-13T05:45:29;99000.13;;;3.47;73.60
71917;BME280;59793;46.506;6.674;2023-02-13T05:47:54;98987.50;;;3.39;72.85
71917;BME280;59793;46.506;6.674;2023-02-13T05:50:20;99028.53;;;3.48;73.34
71917;BME280;59793;46.506;6.674;2023-02-13T05:52:45;99004.66;;;3.34;73.01
71917;BME280;59793;46.506;6.674;2023-02-13T05:55:10;99021.94;;;3.41;72.33
71917;BME280;59793;46.506;6.674;2023-02-13T05:57:36;98960.31;;;2.80;72.73
71917;BME280;59793;46.506;6.674;2023-02-13T06:00:02;99027.16;;;3.19;73.04
71917;BME280;59793;46.506;6.674;2023-02-13T06:02:28;99039.69;;;3.00;73.08
71917;BME280;59793;46.506;6.674;2023-02-13T06:04:53;99027.69;;;2.99;74.07
71917;BME280;59793;46.506;6.674;2023-02-13T06:07:19;99039.28;;;3.08;74.74
71917;BME280;59793;46.506;6.674;2023-02-13T06:09:44;98972.59;;;2.63;74.88
71917;BME280;59793;46.506;6.674;2023-02-13T06:12:09;99045.56;;;3.12;74.70
71917;BME280;59793;46.506;6.674;2023-02-13T06:14:35;99041.63;;;3.09;74.17
71917;BME280;59793;46.506;6.674;2023-02-13T06:17:00;99011.53;;;2.97;74.61
71917;BME280;59793;46.506;6.674;2023-02-13T06:19:25;98983.66;;;2.75;74.66
71917;BME280;59793;46.506;6.674;2023-02-13T06:21:51;99042.41;;;3.10;74.38
71917;BME280;59793;46.506;6.674;2023-02-13T06:24:16;99042.53;;;2.98;74.40
71917;BME280;59793;46.506;6.674;2023-02-13T06:26:42;99013.50;;;2.68;74.23
71917;BME280;59793;46.506;6.674;2023-02-13T06:29:07;99021.41;;;2.56;74.83
71917;BME280;59793;46.506;6.674;2023-02-13T06:31:34;99052.84;;;2.71;75.17
71917;BME280;59793;46.506;6.674;2023-02-13T06:33:59;99048.06;;;2.63;74.93
71917;BME280;59793;46.506;6.674;2023-02-13T06:36:25;99063.19;;;2.66;75.18
71917;BME280;59793;46.506;6.674;2023-02-13T06:38:50;99046.88;;;2.54;75.42
71917;BME280;59793;46.506;6.674;2023-02-13T06:41:15;98993.72;;;2.28;75.44
71917;BME280;59793;46.506;6.674;2023-02-13T06:43:41;99014.50;;;2.45;76.10
71917;BME280;59793;46.506;6.674;2023-02-13T06:46:07;99064.91;;;2.77;76.38
71917;BME280;59793;46.506;6.674;2023-02-13T06:48:33;99051.13;;;2.77;76.04
71917;BME280;59793;46.506;6.674;2023-02-13T06:50:59;99053.53;;;2.83;75.58
71917;BME280;59793;46.506;6.674;2023-02-13T06:53:26;99079.34;;;3.07;74.33
71917;BME280;59793;46.506;6.674;2023-02-13T06:55:53;99075.19;;;3.06;74.10
71917;BME280;59793;46.506;6.674;2023-02-13T06:58:23;99062.16;;;3.06;73.83
71917;BME280;59793;46.506;6.674;2023-02-13T07:00:49;99036.06;;;3.01;73.50
71917;BME280;59793;46.506;6.674;2023-02-13T07:03:15;99077.69;;;3.40;73.74
71917;BME280;59793;46.506;6.674;2023-02-13T07:05:42;99083.50;;;3.47;73.33
71917;BME280;59793;46.506;6.674;2023-02-13T07:08:08;99077.66;;;3.62;73.20
71917;BME280;59793;46.506;6.674;2023-02-13T07:10:36;99077.81;;;3.77;72.66
71917;BME280;59793;46.506;6.674;2023-02-13T07:13:02;99075.94;;;3.72;72.41
71917;BME280;59793;46.506;6.674;2023-02-13T07:15:28;99075.97;;;3.77;72.62
71917;BME280;59793;46.506;6.674;2023-02-13T07:17:58;99001.16;;;3.24;72.35
71917;BME280;59793;46.506;6.674;2023-02-13T07:20:25;99033.81;;;3.53;71.83
71917;BME280;59793;46.506;6.674;2023-02-13T07:22:51;99069.69;;;3.73;71.68
71917;BME280;59793;46.506;6.674;2023-02-13T07:25:17;99052.81;;;3.81;71.49
71917;BME280;59793;46.506;6.674;2023-02-13T07:27:42;99057.34;;;3.91;70.74
71917;BME280;59793;46.506;6.674;2023-02-13T07:30:08;99032.22;;;3.79;70.49
71917;BME280;59793;46.506;6.674;2023-02-13T07:32:34;99060.75;;;4.23;70.22
71917;BME280;59793;46.506;6.674;2023-02-13T07:34:59;99069.56;;;4.49;69.96
71917;BME280;59793;46.506;6.674;2023-02-13T07:37:26;99076.84;;;4.85;69.36
71917;BME280;59793;46.506;6.674;2023-02-13T07:39:52;99053.38;;;4.95;68.51
71917;BME280;59793;46.506;6.674;2023-02-13T07:42:17;99057.66;;;5.21;67.65
71917;BME280;59793;46.506;6.674;2023-02-13T07:44:43;99078.16;;;5.50;67.01
71917;BME280;59793;46.506;6.674;2023-02-13T07:47:09;99068.00;;;5.64;66.50
71917;BME280;59793;46.506;6.674;2023-02-13T07:49:35;99039.25;;;5.59;65.73
71917;BME280;59793;46.506;6.674;2023-02-13T07:52:01;99109.47;;;6.23;65.23
71917;BME280;59793;46.506;6.674;2023-02-13T07:54:27;99083.00;;;6.25;65.19
71917;BME280;59793;46.506;6.674;2023-02-13T07:56:52;99079.88;;;6.38;64.75
71917;BME280;59793;46.506;6.674;2023-02-13T07:59:17;99107.09;;;6.73;64.57
71917;BME280;59793;46.506;6.674;2023-02-13T08:01:43;99061.28;;;6.55;64.07
71917;BME280;59793;46.506;6.674;2023-02-13T08:04:10;99094.47;;;6.95;63.49
71917;BME280;59793;46.506;6.674;2023-02-13T08:06:38;99068.78;;;6.92;62.91
71917;BME280;59793;46.506;6.674;2023-02-13T08:09:03;99073.69;;;7.19;62.80
71917;BME280;59793;46.506;6.674;2023-02-13T08:11:47;99099.56;;;7.46;62.30
71917;BME280;59793;46.506;6.674;2023-02-13T08:14:27;99062.88;;;7.36;62.14
71917;BME280;59793;46.506;6.674;2023-02-13T08:16:53;99079.56;;;7.55;61.95
71917;BME280;59793;46.506;6.674;2023-02-13T08:19:19;99084.75;;;7.65;62.02
71917;BME280;59793;46.506;6.674;2023-02-13T08:21:45;99077.91;;;7.70;60.34
71917;BME280;59793;46.506;6.674;2023-02-13T08:24:11;99103.22;;;7.45;61.57
71917;BME280;59793;46.506;6.674;2023-02-13T08:26:37;99060.75;;;7.43;60.72
71917;BME280;59793;46.506;6.674;2023-02-13T08:29:04;99097.88;;;7.65;60.92
71917;BME280;59793;46.506;6.674;2023-02-13T08:31:29;99100.88;;;7.93;59.99
71917;BME280;59793;46.506;6.674;2023-02-13T08:33:55;99086.06;;;8.07;59.49
71917;BME280;59793;46.506;6.674;2023-02-13T08:36:22;99086.41;;;8.35;57.90
71917;BME280;59793;46.506;6.674;2023-02-13T08:38:47;99064.88;;;8.38;57.57
71917;BME280;59793;46.506;6.674;2023-02-13T08:41:14;99106.13;;;8.67;58.38
71917;BME280;59793;46.506;6.674;2023-02-13T08:43:39;99028.03;;;8.43;57.53
71917;BME280;59793;46.506;6.674;2023-02-13T08:46:05;99099.88;;;8.86;57.46
71917;BME280;59793;46.506;6.674;2023-02-13T08:48:30;99047.44;;;8.47;57.70
71917;BME280;59793;46.506;6.674;2023-02-13T08:50:55;99105.00;;;9.02;56.90
71917;BME280;59793;46.506;6.674;2023-02-13T08:53:21;99096.81;;;9.03;57.86
71917;BME280;59793;46.506;6.674;2023-02-13T08:55:54;99075.56;;;9.00;58.00
71917;BME280;59793;46.506;6.674;2023-02-13T08:58:19;99111.25;;;9.30;58.00
71917;BME280;59793;46.506;6.674;2023-02-13T09:00:45;99087.19;;;9.61;57.04
71917;BME280;59793;46.506;6.674;2023-02-13T09:03:10;99082.38;;;9.25;57.51
71917;BME280;59793;46.506;6.674;2023-02-13T09:05:35;99027.75;;;8.74;58.34
71917;BME280;59793;46.506;6.674;2023-02-13T09:08:01;99088.72;;;9.43;57.30
71917;BME280;59793;46.506;6.674;2023-02-13T09:10:27;99089.09;;;9.12;58.30
71917;BME280;59793;46.506;6.674;2023-02-13T09:12:53;99098.34;;;9.52;58.21
71917;BME280;59793;46.506;6.674;2023-02-13T09:15:19;99091.09;;;9.63;57.73
71917;BME280;59793;46.506;6.674;2023-02-13T09:17:44;99096.31;;;9.87;57.16
71917;BME280;59793;46.506;6.674;2023-02-13T09:20:10;99106.13;;;9.81;58.26
71917;BME280;59793;46.506;6.674;2023-02-13T09:22:40;99082.50;;;8.91;61.09
71917;BME280;59793;46.506;6.674;2023-02-13T09:25:06;99078.50;;;9.41;58.99
71917;BME280;59793;46.506;6.674;2023-02-13T09:27:32;99056.94;;;9.39;59.22
71917;BME280;59793;46.506;6.674;2023-02-13T09:29:59;99105.00;;;9.26;60.28
71917;BME280;59793;46.506;6.674;2023-02-13T09:32:24;99101.28;;;8.50;63.25
71917;BME280;59793;46.506;6.674;2023-02-13T09:34:50;99103.31;;;8.19;64.23
71917;BME280;59793;46.506;6.674;2023-02-13T09:37:15;99109.97;;;9.27;60.64
71917;BME280;59793;46.506;6.674;2023-02-13T09:39:41;99119.53;;;8.94;61.55
71917;BME280;59793;46.506;6.674;2023-02-13T09:42:26;99107.94;;;8.95;61.84
71917;BME280;59793;46.506;6.674;2023-02-13T09:44:56;99077.81;;;8.58;62.52
71917;BME280;59793;46.506;6.674;2023-02-13T09:47:38;99098.22;;;9.20;60.94
71917;BME280;59793;46.506;6.674;2023-02-13T09:50:12;99115.13;;;9.14;61.33
71917;BME280;59793;46.506;6.674;2023-02-13T09:52:42;99106.09;;;9.44;60.60
71917;BME280;59793;46.506;6.674;2023-02-13T09:57:49;99092.97;;;9.63;58.37
71917;BME280;59793;46.506;6.674;2023-02-13T10:03:04;99112.06;;;9.49;59.47
71917;BME280;59793;46.506;6.674;2023-02-13T10:19:03;99104.88;;;8.88;61.22
71917;BME280;59793;46.506;6.674;2023-02-13T10:21:37;99096.25;;;9.30;59.81
71917;BME280;59793;46.506;6.674;2023-02-13T10:24:13;99111.13;;;9.83;58.10
71917;BME280;59793;46.506;6.674;2023-02-13T10:26:43;99080.56;;;9.82;57.37
71917;BME280;59793;46.506;6.674;2023-02-13T10:32:42;99107.63;;;9.69;58.20
71917;BME280;59793;46.506;6.674;2023-02-13T10:35:22;99089.53;;;9.81;58.32
71917;BME280;59793;46.506;6.674;2023-02-13T10:37:52;99080.91;;;10.13;57.01
71917;BME280;59793;46.506;6.674;2023-02-13T10:40:19;99101.84;;;10.23;56.08
71917;BME280;59793;46.506;6.674;2023-02-13T10:42:49;99074.84;;;10.64;55.32
71917;BME280;59793;46.506;6.674;2023-02-13T10:54:12;99088.75;;;9.99;57.24
71917;BME280;59793;46.506;6.674;2023-02-13T10:57:01;99078.16;;;10.70;55.38
71917;BME280;59793;46.506;6.674;2023-02-13T11:04:44;99084.81;;;11.50;52.50
71917;BME280;59793;46.506;6.674;2023-02-13T11:07:14;99057.78;;;11.67;51.96
71917;BME280;59793;46.506;6.674;2023-02-13T11:09:41;99063.16;;;11.12;52.85
71917;BME280;59793;46.506;6.674;2023-02-13T11:12:28;99077.91;;;10.20;56.05
71917;BME280;59793;46.506;6.674;2023-02-13T11:17:21;99057.97;;;11.07;53.86
71917;BME280;59793;46.506;6.674;2023-02-13T11:19:56;99084.22;;;11.39;52.57
71917;BME280;59793;46.506;6.674;2023-02-13T11:22:37;99075.13;;;11.45;52.51
71917;BME280;59793;46.506;6.674;2023-02-13T11:25:32;99077.97;;;11.49;53.01
71917;BME280;59793;46.506;6.674;2023-02-13T11:28:12;99028.81;;;11.39;52.33
71917;BME280;59793;46.506;6.674;2023-02-13T11:30:40;99070.13;;;11.58;53.47
71917;BME280;59793;46.506;6.674;2023-02-13T11:35:40;99060.97;;;11.78;52.01
71917;BME280;59793;46.506;6.674;2023-02-13T11:40:45;99049.22;;;11.47;53.01
71917;BME280;59793;46.506;6.674;2023-02-13T11:43:29;99037.69;;;11.80;52.46
71917;BME280;59793;46.506;6.674;2023-02-13T11:46:05;99058.47;;;12.40;50.57
71917;BME280;59793;46.506;6.674;2023-02-13T11:48:32;99052.41;;;12.71;49.76
71917;BME280;59793;46.506;6.674;2023-02-13T11:50:58;99051.44;;;12.35;50.10
71917;BME280;59793;46.506;6.674;2023-02-13T11:53:26;99050.38;;;11.55;52.23
71917;BME280;59793;46.506;6.674;2023-02-13T11:56:09;99024.66;;;11.61;52.64
71917;BME280;59793;46.506;6.674;2023-02-13T11:58:35;99026.44;;;11.88;51.71
71917;BME280;59793;46.506;6.674;2023-02-13T12:03:33;99038.94;;;11.82;51.99
71917;BME280;59793;46.506;6.674;2023-02-13T12:06:05;99017.44;;;11.53;51.38
71917;BME280;59793;46.506;6.674;2023-02-13T12:08:37;99008.22;;;11.64;52.56
71917;BME280;59793;46.506;6.674;2023-02-13T12:11:13;99020.63;;;12.00;50.83
71917;BME280;59793;46.506;6.674;2023-02-13T12:13:41;99026.69;;;12.23;50.80
71917;BME280;59793;46.506;6.674;2023-02-13T12:18:51;99018.91;;;13.06;48.54
71917;BME280;59793;46.506;6.674;2023-02-13T12:21:45;99013.03;;;12.07;50.37
71917;BME280;59793;46.506;6.674;2023-02-13T12:33:46;99003.69;;;13.20;47.77
71917;BME280;59793;46.506;6.674;2023-02-13T12:41:48;98995.31;;;13.70;46.29
71917;BME280;59793;46.506;6.674;2023-02-13T12:44:23;98991.88;;;13.70;47.08
71917;BME280;59793;46.506;6.674;2023-02-13T13:06:33;98969.81;;;14.21;44.30
71917;BME280;59793;46.506;6.674;2023-02-13T13:16:36;98967.13;;;14.39;42.14
71917;BME280;59793;46.506;6.674;2023-02-13T13:27:25;98950.59;;;14.71;40.78
71917;BME280;59793;46.506;6.674;2023-02-13T13:30:10;98927.91;;;14.82;41.09
71917;BME280;59793;46.506;6.674;2023-02-13T13:32:38;98923.44;;;14.74;39.09
71917;BME280;59793;46.506;6.674;2023-02-13T13:35:04;98944.47;;;14.79;41.20
71917;BME280;59793;46.506;6.674;2023-02-13T13:37:36;98938.56;;;14.74;41.67
71917;BME280;59793;46.506;6.674;2023-02-13T13:50:34;98901.91;;;15.84;37.17
71917;BME280;59793;46.506;6.674;2023-02-13T13:53:11;98934.53;;;16.18;36.55
71917;BME280;59793;46.506;6.674;2023-02-13T13:58:37;98918.03;;;16.24;34.66
71917;BME280;59793;46.506;6.674;2023-02-13T14:04:02;98912.94;;;16.44;34.76
71917;BME280;59793;46.506;6.674;2023-02-13T14:08:59;98899.41;;;16.12;36.69
71917;BME280;59793;46.506;6.674;2023-02-13T14:11:36;98899.50;;;16.53;35.36
71917;BME280;59793;46.506;6.674;2023-02-13T14:16:50;98913.59;;;16.65;35.10
71917;BME280;59793;46.506;6.674;2023-02-13T14:24:51;98903.66;;;17.59;33.34
71917;BME280;59793;46.506;6.674;2023-02-13T14:27:44;98878.69;;;17.07;33.88
71917;BME280;59793;46.506;6.674;2023-02-13T14:30:37;98880.00;;;17.13;33.50
71917;BME280;59793;46.506;6.674;2023-02-13T14:33:28;98875.44;;;17.86;31.46
71917;BME280;59793;46.506;6.674;2023-02-13T14:36:01;98881.09;;;18.32;31.81
71917;BME280;59793;46.506;6.674;2023-02-13T14:38:27;98859.03;;;19.05;30.73
71917;BME280;59793;46.506;6.674;2023-02-13T14:40:53;98851.63;;;19.18;29.85
71917;BME280;59793;46.506;6.674;2023-02-13T14:45:57;98881.09;;;20.33;28.44
71917;BME280;59793;46.506;6.674;2023-02-13T14:48:40;98888.19;;;20.48;27.00
71917;BME280;59793;46.506;6.674;2023-02-13T14:51:18;98877.94;;;20.27;27.90
71917;BME280;59793;46.506;6.674;2023-02-13T14:53:54;98848.25;;;20.36;27.48
71917;BME280;59793;46.506;6.674;2023-02-13T14:56:22;98883.00;;;20.59;27.96
71917;BME280;59793;46.506;6.674;2023-02-13T14:59:15;98879.13;;;20.30;28.07
71917;BME280;59793;46.506;6.674;2023-02-13T15:02:22;98869.47;;;20.22;28.67
71917;BME280;59793;46.506;6.674;2023-02-13T15:04:49;98863.28;;;20.18;29.00
71917;BME280;59793;46.506;6.674;2023-02-13T15:07:25;98851.22;;;20.04;28.67
71917;BME280;59793;46.506;6.674;2023-02-13T15:12:55;98850.72;;;18.72;30.03
71917;BME280;59793;46.506;6.674;2023-02-13T15:15:28;98869.28;;;18.33;31.64
71917;BME280;59793;46.506;6.674;2023-02-13T15:18:01;98855.38;;;18.24;31.68
71917;BME280;59793;46.506;6.674;2023-02-13T15:20:33;98870.09;;;18.02;31.28
71917;BME280;59793;46.506;6.674;2023-02-13T15:23:00;98855.00;;;17.46;32.45
71917;BME280;59793;46.506;6.674;2023-02-13T15:25:37;98864.47;;;17.31;33.04
71917;BME280;59793;46.506;6.674;2023-02-13T15:28:05;98836.59;;;16.85;34.72
71917;BME280;59793;46.506;6.674;2023-02-13T15:30:36;98848.16;;;16.77;35.60
71917;BME280;59793;46.506;6.674;2023-02-13T15:33:16;98860.13;;;16.70;35.86
71917;BME280;59793;46.506;6.674;2023-02-13T15:35:42;98842.88;;;16.28;36.14
71917;BME280;59793;46.506;6.674;2023-02-13T15:38:34;98851.19;;;15.44;39.14
71917;BME280;59793;46.506;6.674;2023-02-13T15:41:22;98816.91;;;15.18;38.49
71917;BME280;59793;46.506;6.674;2023-02-13T15:43:51;98845.44;;;15.42;38.83
71917;BME280;59793;46.506;6.674;2023-02-13T15:46:18;98849.41;;;15.69;38.41
71917;BME280;59793;46.506;6.674;2023-02-13T15:48:44;98845.94;;;15.68;37.63
71917;BME280;59793;46.506;6.674;2023-02-13T15:51:24;98846.81;;;15.60;37.99
71917;BME280;59793;46.506;6.674;2023-02-13T15:53:54;98843.91;;;15.41;38.68
71917;BME280;59793;46.506;6.674;2023-02-13T15:56:21;98843.66;;;15.34;38.92
71917;BME280;59793;46.506;6.674;2023-02-13T15:58:48;98835.25;;;15.11;39.42
71917;BME280;59793;46.506;6.674;2023-02-13T16:01:15;98846.34;;;14.92;41.52
71917;BME280;59793;46.506;6.674;2023-02-13T16:03:42;98837.09;;;14.56;42.74
71917;BME280;59793;46.506;6.674;2023-02-13T16:06:13;98833.06;;;14.20;43.34
71917;BME280;59793;46.506;6.674;2023-02-13T16:08:43;98856.91;;;14.20;42.60
71917;BME280;59793;46.506;6.674;2023-02-13T16:14:18;98857.56;;;13.70;43.96
71917;BME280;59793;46.506;6.674;2023-02-13T16:21:51;98847.22;;;13.13;46.77
71917;BME280;59793;46.506;6.674;2023-02-13T16:24:18;98838.22;;;12.79;48.29